»·PEaware :: N900FT KLAS-KSDL

N900FT :: KLAS-KSDL

FLIGHT INFORMATION

Flight Status: Arrived
Operator: Privately registered:
United States
More flights under this callsign
Pilot: Anonymous 26404 (26404)
Aircraft: SOCATA TBM-900
(TBM9)
More flights by this aircraft type
Origin: KLAS McCarran Intl
United States
Destination: KSDL Scottsdale
United States
More flights between these airports :: More routes between these airports
Route: +PRFUM4 DRK DSERT DSERT2
File this flight plan on PilotEdge
Remarks:
Altitude:
(Current/Filed)
29,000ft
Speed:
(Current/Filed)
317kts
Departed: 20-May-20 07:36 PM
Arrived: 20-May-20 08:36 PM
Distance/Time
Traveled:
217nm/1:00
Distance/Time
To Go:
Arrived

Flight Plot

Page will automatically refresh every two minutes.


Map Options




Map Legend


Flown Route
Filed Route
Departure Airport
Arrival Airport
Navaid (VOR, NDB)
Fix

Horizontal Profiles

Position Reports

Time Latitude Longitude Heading Altitude Ground
Speed
20-May-20 18:58 36.094618 -115.163019 269 2112ft 0kts
20-May-20 18:59 36.094618 -115.163019 269 2112ft 0kts
20-May-20 19:00 36.094618 -115.163019 269 2112ft 0kts
20-May-20 19:01 36.094618 -115.163019 269 2112ft 0kts
20-May-20 19:02 36.094618 -115.163019 269 2112ft 0kts
20-May-20 19:03 36.094618 -115.163019 269 2112ft 0kts
20-May-20 19:04 36.094618 -115.163019 269 2112ft 0kts
20-May-20 19:05 36.094618 -115.163019 269 2112ft 0kts
20-May-20 19:06 36.094618 -115.163019 269 2112ft 0kts
20-May-20 19:07 36.094618 -115.163019 269 2112ft 0kts
20-May-20 19:08 36.094618 -115.163019 269 2112ft 0kts
20-May-20 19:09 36.094618 -115.163019 269 2112ft 0kts
20-May-20 19:10 36.094618 -115.163019 269 2112ft 0kts
20-May-20 19:11 36.094618 -115.163019 269 2112ft 0kts
20-May-20 19:12 36.094618 -115.163019 269 2112ft 0kts
20-May-20 19:13 36.094618 -115.163019 269 2112ft 0kts
20-May-20 19:14 36.094618 -115.163019 269 2112ft 0kts
20-May-20 19:15 36.094618 -115.163019 269 2112ft 0kts
20-May-20 19:16 36.094618 -115.163019 269 2112ft 0kts
20-May-20 19:17 36.094618 -115.163019 269 2112ft 0kts
20-May-20 19:18 36.094618 -115.163019 269 2112ft 0kts
20-May-20 19:19 36.094618 -115.163019 269 2112ft 0kts
20-May-20 19:20 36.094618 -115.163019 269 2112ft 0kts
20-May-20 19:21 36.094618 -115.163019 269 2112ft 0kts
20-May-20 19:22 36.094618 -115.163019 269 2112ft 0kts
20-May-20 19:23 36.094618 -115.163019 269 2112ft 0kts
20-May-20 19:24 36.094618 -115.163019 269 2112ft 0kts
20-May-20 19:25 36.094618 -115.163019 269 2112ft 0kts
20-May-20 19:26 36.094618 -115.163020 269 2112ft 0kts
20-May-20 19:27 36.094701 -115.163163 4 2113ft 4kts
20-May-20 19:28 36.094465 -115.162104 86 2109ft 4kts
20-May-20 19:29 36.095969 -115.160986 23 2101ft 19kts
20-May-20 19:30 36.099844 -115.157582 83 2085ft 3kts
20-May-20 19:31 36.099845 -115.157573 83 2085ft 0kts
20-May-20 19:32 36.099845 -115.157573 83 2085ft 0kts
20-May-20 19:33 36.099845 -115.157573 83 2085ft 0kts
20-May-20 19:34 36.099845 -115.157573 83 2085ft 0kts
20-May-20 19:35 36.094167 -115.159549 203 2102ft 107kts
20-May-20 19:36 36.058551 -115.180094 205 4056ft 154kts
20-May-20 19:37 36.019122 -115.202571 208 6456ft 157kts
20-May-20 19:38 35.995248 -115.248271 242 8605ft 160kts
20-May-20 19:39 35.970650 -115.295711 205 10709ft 171kts
20-May-20 19:40 35.923710 -115.283617 163 12995ft 177kts
20-May-20 19:41 35.875943 -115.265503 162 14963ft 186kts
20-May-20 19:42 35.853766 -115.209106 103 16772ft 193kts
20-May-20 19:43 35.837783 -115.142332 104 18896ft 206kts
20-May-20 19:44 35.821461 -115.071258 89 20884ft 221kts
20-May-20 19:45 35.828539 -114.979844 83 21022ft 299kts
20-May-20 19:46 35.836453 -114.873387 83 21004ft 323kts
20-May-20 19:47 35.844818 -114.759787 83 21001ft 325kts
20-May-20 19:48 35.852992 -114.647337 83 21001ft 326kts
20-May-20 19:49 35.827289 -114.543549 125 21004ft 323kts
20-May-20 19:50 35.777372 -114.449390 125 21004ft 323kts
20-May-20 19:51 35.727564 -114.355631 125 21011ft 323kts
20-May-20 19:52 35.677401 -114.261432 125 21034ft 322kts
20-May-20 19:53 35.626795 -114.166676 125 21044ft 322kts
20-May-20 19:54 35.575929 -114.071699 125 21045ft 323kts
20-May-20 19:55 35.525240 -113.977299 125 21045ft 323kts
20-May-20 19:56 35.474826 -113.883694 125 21046ft 323kts
20-May-20 19:57 35.423559 -113.788770 125 21046ft 323kts
20-May-20 19:58 35.372453 -113.694407 125 21047ft 323kts
20-May-20 19:59 35.321576 -113.600717 125 21048ft 323kts
20-May-20 20:00 35.270861 -113.507574 125 21048ft 323kts
20-May-20 20:01 35.220124 -113.414634 125 21049ft 323kts
20-May-20 20:02 35.169768 -113.322641 126 21044ft 323kts
20-May-20 20:03 35.118977 -113.230100 126 21051ft 323kts
20-May-20 20:04 35.068087 -113.137608 126 21069ft 322kts
20-May-20 20:05 35.017246 -113.045451 126 21079ft 323kts
20-May-20 20:06 34.966780 -112.954178 127 21081ft 324kts
20-May-20 20:07 34.915419 -112.861588 127 21085ft 324kts
20-May-20 20:08 34.864162 -112.769428 127 21095ft 324kts
20-May-20 20:10 34.812469 -112.676704 127 21109ft 324kts
20-May-20 20:11 34.761357 -112.585254 127 21131ft 322kts
20-May-20 20:12 34.710234 -112.494028 127 21152ft 321kts
20-May-20 20:13 34.674583 -112.391453 113 21175ft 325kts
20-May-20 20:14 34.642009 -112.288107 114 21180ft 325kts
20-May-20 20:15 34.609050 -112.183981 114 21171ft 325kts
20-May-20 20:16 34.576040 -112.080052 114 21166ft 325kts
20-May-20 20:17 34.542947 -111.976226 114 21166ft 325kts
20-May-20 20:18 34.509292 -111.871068 113 20450ft 341kts
20-May-20 20:19 34.473876 -111.760693 113 18433ft 348kts
20-May-20 20:20 34.415925 -111.680217 181 16289ft 316kts
20-May-20 20:21 34.331501 -111.700217 195 14269ft 301kts
20-May-20 20:22 34.254803 -111.723381 196 14111ft 267kts
20-May-20 20:23 34.178320 -111.746602 195 12333ft 291kts
20-May-20 20:24 34.097921 -111.770647 194 10306ft 295kts
20-May-20 20:24 34.033636 -111.789664 194 8677ft 266kts
20-May-20 20:26 33.953596 -111.813305 194 7001ft 226kts
20-May-20 20:27 33.893253 -111.820290 179 5797ft 227kts
20-May-20 20:27 33.844093 -111.821703 184 4430ft 196kts
20-May-20 20:28 33.801545 -111.841030 207 3936ft 116kts
20-May-20 20:30 33.762476 -111.866730 210 4017ft 165kts
20-May-20 20:30 33.725872 -111.881522 171 3997ft 143kts
20-May-20 20:31 33.698016 -111.867995 155 3764ft 102kts
20-May-20 20:32 33.671640 -111.864132 197 3033ft 96kts
20-May-20 20:33 33.649363 -111.879960 222 2225ft 90kts
20-May-20 20:34 33.631161 -111.900976 224 1557ft 87kts
20-May-20 20:35 33.622821 -111.912340 317 1467ft 14kts
20-May-20 20:36 33.623087 -111.913186 225 1466ft 0kts
20-May-20 20:37 33.623087 -111.913186 225 1466ft 0kts
20-May-20 20:38 33.623087 -111.913186 225 1466ft 0kts
20-May-20 20:39 33.623087 -111.913186 225 1466ft 0kts
20-May-20 20:40 33.623087 -111.913186 225 1466ft 0kts
20-May-20 20:41 33.623087 -111.913186 225 1466ft 0kts
20-May-20 20:42 33.623087 -111.913186 225 1466ft 0kts
20-May-20 20:43 33.623087 -111.913186 225 1466ft 0kts
20-May-20 20:44 33.623087 -111.913186 225 1466ft 0kts

Navigation Log

Ident Type
Flight plan parsing failed, navigation log unavailable